Terminal Aerodrome Forecast
Issued by NWS Sioux Falls, SD

Home | Current Version | Previous Version | Graphics & Text | Print | Product List | Glossary On
Versions: 1 2 3 4 5 6 7 8 9 10 11 12 13 14 15 16
896
FTUS43 KFSD 230520
TAFHON
TAF
KHON 230520Z 2306/2406 28006KT P6SM OVC015
     FM231400 17004KT P6SM OVC015
     FM231800 14008KT P6SM BKN015
     FM232100 12009KT P6SM OVC020
     FM240200 12010KT P6SM OVC015=

USA.gov is the U.S. government's official web portal to all federal, state and local government web resources and services.